Terminal Aerodrome Forecast
Issued by NWS

Home | Current Version | Previous Version | Text Only | Print | Product List | Glossary On
Versions: 1 2 3 4 5 6 7 8 9 10 11 12 13 14 15 16 17 18 19 20 21 22 23
639
FTUS45 KGGW 141120
TAFOLF
TAF
KOLF 141120Z 1412/1512 03006KT P6SM VCSH BKN040
     FM141500 VRB04KT P6SM SCT060
     FM141600 31007KT P6SM SCT050
     FM150300 VRB04KT P6SM SCT150=

USA.gov is the U.S. government's official web portal to all federal, state and local government web resources and services.